Time;durP1;ratioP1;P1;durP2;ratioP2;P2;SDS_P1;SDS_P2;PMS_P1;PMS_P2;Temp;Humidity;BMP_temperature;BMP_pressure;BME280_temperature;BME280_humidity;BME280_pressure;Samples;Min_cycle;Max_cycle;Signal;HPM_P1;HPM_P2
2022/09/06 00:00:48;;;;;;;2.13;0.73;;;24.90;99.90;;;;;;5068851;28;20203;-91
2022/09/06 00:03:19;;;;;;;2.83;0.80;;;24.80;98.30;;;;;;5062278;28;20726;-92
2022/09/06 00:05:53;;;;;;;2.60;0.80;;;24.60;98.10;;;;;;5059833;28;20700;-91
2022/09/06 00:08:25;;;;;;;5.20;1.10;;;24.40;98.60;;;;;;5058729;28;20610;-92
2022/09/06 00:11:00;;;;;;;2.87;1.40;;;24.30;98.80;;;;;;5058677;28;20270;-92
2022/09/06 00:13:32;;;;;;;4.67;0.77;;;24.50;99.00;;;;;;5058190;28;20661;-92
2022/09/06 00:16:09;;;;;;;2.03;0.80;;;24.30;97.50;;;;;;5062657;28;20231;-92
2022/09/06 00:21:34;;;;;;;3.67;2.00;;;24.40;97.20;;;;;;5057774;28;20208;-92
2022/09/06 00:24:05;;;;;;;2.20;0.67;;;24.40;97.20;;;;;;5057641;28;20266;-91
2022/09/06 00:26:39;;;;;;;2.40;0.90;;;24.40;96.00;;;;;;5058414;28;20232;-92
2022/09/06 00:29:11;;;;;;;2.90;1.00;;;24.40;96.00;;;;;;5060860;28;20211;-92
2022/09/06 00:31:43;;;;;;;2.60;0.63;;;24.20;96.00;;;;;;5057328;28;20266;-92
2022/09/06 00:34:15;;;;;;;1.67;0.60;;;24.30;94.60;;;;;;5057075;28;20205;-91
2022/09/06 00:36:45;;;;;;;2.10;0.70;;;24.10;95.20;;;;;;5058401;28;20208;-91
2022/09/06 00:39:19;;;;;;;1.80;0.80;;;24.10;94.30;;;;;;5056838;28;20303;-92
2022/09/06 00:41:54;;;;;;;2.40;0.83;;;24.00;94.60;;;;;;5056783;28;20235;-92
2022/09/06 00:44:25;;;;;;;2.47;0.83;;;23.90;94.00;;;;;;5057576;28;20684;-92
2022/09/06 00:46:57;;;;;;;1.93;0.70;;;23.90;93.20;;;;;;5056880;28;20203;-92
2022/09/06 00:49:34;;;;;;;2.30;0.40;;;24.00;94.40;;;;;;5057991;28;20246;-92
2022/09/06 00:52:09;;;;;;;1.57;0.70;;;23.70;92.10;;;;;;5056967;28;20656;-91
2022/09/06 00:54:41;;;;;;;4.43;0.90;;;23.70;92.90;;;;;;5056075;28;20220;-92
2022/09/06 00:57:20;;;;;;;1.87;0.53;;;23.60;93.10;;;;;;5058191;28;20208;-91
2022/09/06 00:59:52;;;;;;;0.93;0.50;;;23.60;94.10;;;;;;5058758;28;20212;-90
2022/09/06 01:02:24;;;;;;;3.23;0.77;;;23.50;92.80;;;;;;5056514;28;20738;-91
2022/09/06 01:04:55;;;;;;;2.60;0.80;;;23.20;93.30;;;;;;5059523;28;20224;-91
2022/09/06 01:07:38;;;;;;;1.53;0.70;;;23.10;92.90;;;;;;5057750;28;20200;-91
2022/09/06 01:10:33;;;;;;;2.30;0.80;;;23.00;93.20;;;;;;5037454;28;20275;-90
2022/09/06 01:13:17;;;;;;;1.97;0.90;;;23.00;93.70;;;;;;5035450;28;20239;-90
2022/09/06 01:15:58;;;;;;;3.27;1.17;;;22.80;94.80;;;;;;5040502;28;20229;-92
2022/09/06 01:18:42;;;;;;;2.27;1.03;;;22.80;95.20;;;;;;5053933;28;20212;-90
2022/09/06 01:21:32;;;;;;;3.53;0.93;;;22.70;95.20;;;;;;5052790;28;20200;-91
2022/09/06 01:24:35;;;;;;;3.07;1.00;;;22.80;96.20;;;;;;5061482;28;20281;-92
2022/09/06 01:27:45;;;;;;;3.73;1.00;;;22.70;96.50;;;;;;5067128;28;20239;-91
2022/09/06 01:30:21;;;;;;;3.50;1.27;;;22.60;97.10;;;;;;5032921;28;20223;-91
2022/09/06 01:32:58;;;;;;;1.63;0.80;;;22.40;98.00;;;;;;5066464;28;20216;-93
2022/09/06 01:35:34;;;;;;;3.63;0.97;;;22.20;98.90;;;;;;5064931;28;20195;-93
2022/09/06 01:38:10;;;;;;;2.17;0.90;;;22.00;99.60;;;;;;5063172;28;20233;-92
2022/09/06 01:40:44;;;;;;;3.33;1.00;;;21.70;99.90;;;;;;5068327;28;20296;-92
2022/09/06 01:43:29;;;;;;;2.73;0.90;;;21.60;99.90;;;;;;5069441;28;20205;-95
2022/09/06 01:46:18;;;;;;;1.60;0.60;;;21.50;99.90;;;;;;5070185;28;20224;-91
2022/09/06 01:49:15;;;;;;;3.27;0.90;;;21.30;99.90;;;;;;5070218;28;20208;-92
2022/09/06 01:55:10;;;;;;;2.60;0.80;;;21.00;99.90;;;;;;5067515;28;20200;-92
2022/09/06 01:58:07;;;;;;;3.93;0.80;;;21.00;99.90;;;;;;5065652;28;20656;-92
2022/09/06 02:00:46;;;;;;;1.80;0.80;;;20.90;99.90;;;;;;5058682;28;20208;-93
2022/09/06 02:03:38;;;;;;;5.17;1.23;;;20.80;99.90;;;;;;5067385;28;20216;-93
2022/09/06 02:12:37;;;;;;;3.17;0.73;;;20.50;99.90;;;;;;5072615;28;20248;-92
2022/09/06 02:18:18;;;;;;;2.70;1.07;;;20.30;99.90;;;;;;5071023;28;20207;-92
2022/09/06 02:21:04;;;;;;;2.17;0.80;;;20.30;99.90;;;;;;5071438;28;20200;-92
2022/09/06 02:23:41;;;;;;;2.83;0.90;;;20.10;99.90;;;;;;5070250;28;20215;-92
2022/09/06 02:26:23;;;;;;;2.03;0.80;;;20.10;99.90;;;;;;5072017;28;20628;-92
2022/09/06 02:31:56;;;;;;;2.03;0.90;;;19.90;99.90;;;;;;5069550;28;20212;-91
2022/09/06 02:37:51;;;;;;;1.70;1.00;;;19.70;99.90;;;;;;5072494;28;20204;-92
2022/09/06 02:40:27;;;;;;;3.53;1.30;;;19.60;99.90;;;;;;5052504;28;20300;-93
2022/09/06 02:43:08;;;;;;;2.10;0.80;;;19.50;99.90;;;;;;5067087;28;20212;-92
2022/09/06 02:45:45;;;;;;;1.70;0.97;;;19.40;99.90;;;;;;5188584;22;20241;-92
2022/09/06 02:51:21;;;;;;;2.40;0.90;;;19.30;99.90;;;;;;5095604;28;20200;-92
2022/09/06 02:53:57;;;;;;;4.30;1.07;;;19.20;99.90;;;;;;5091504;28;20215;-92
2022/09/06 02:59:36;;;;;;;3.13;1.50;;;19.10;99.90;;;;;;5092800;28;20218;-92
2022/09/06 03:05:08;;;;;;;3.57;1.10;;;19.00;99.90;;;;;;5096704;28;20200;-92
2022/09/06 03:07:54;;;;;;;2.77;1.17;;;18.90;99.90;;;;;;5093946;28;20263;-93
2022/09/06 03:10:44;;;;;;;2.90;0.90;;;18.80;99.90;;;;;;5093532;28;20211;-93
2022/09/06 03:13:41;;;;;;;3.17;1.37;;;18.80;99.90;;;;;;5096415;28;20242;-91
2022/09/06 03:16:40;;;;;;;5.17;1.10;;;18.70;99.90;;;;;;5096464;28;20200;-92
2022/09/06 03:22:10;;;;;;;4.90;1.60;;;18.60;99.90;;;;;;5091435;28;20199;-91
2022/09/06 03:24:49;;;;;;;2.73;1.17;;;18.50;99.90;;;;;;5089039;28;20211;-91
2022/09/06 03:27:54;;;;;;;3.13;1.33;;;18.40;99.90;;;;;;5092277;28;20235;-92
2022/09/06 03:30:45;;;;;;;2.70;1.20;;;18.40;99.90;;;;;;5093009;28;20195;-93
2022/09/06 03:33:34;;;;;;;2.90;1.30;;;18.30;99.90;;;;;;5090039;28;20203;-94
2022/09/06 03:36:06;;;;;;;4.03;1.33;;;18.20;99.90;;;;;;5076121;28;20199;-93
2022/09/06 03:38:46;;;;;;;4.73;1.50;;;18.10;99.90;;;;;;5074262;28;20230;-92
2022/09/06 03:41:20;;;;;;;3.43;1.10;;;18.00;99.90;;;;;;5093510;28;20199;-93
2022/09/06 03:44:05;;;;;;;3.83;1.20;;;18.00;99.90;;;;;;5088877;28;20307;-93
2022/09/06 03:46:47;;;;;;;3.93;1.53;;;17.90;99.90;;;;;;5092178;28;20255;-93
2022/09/06 03:54:55;;;;;;;3.03;1.20;;;17.90;99.90;;;;;;5087799;28;20241;-94
2022/09/06 03:57:27;;;;;;;3.23;1.33;;;17.80;99.90;;;;;;5090953;28;20223;-94
2022/09/06 04:00:02;;;;;;;2.00;1.10;;;17.80;99.90;;;;;;5087245;28;20200;-93
2022/09/06 04:02:36;;;;;;;4.27;1.43;;;17.70;99.90;;;;;;5090139;28;20226;-94
2022/09/06 04:05:12;;;;;;;3.40;1.13;;;17.70;99.90;;;;;;5091699;28;20212;-94
2022/09/06 04:07:45;;;;;;;4.43;1.30;;;17.70;99.90;;;;;;5078055;28;20230;-93
2022/09/06 04:10:16;;;;;;;2.47;1.30;;;17.70;99.90;;;;;;5077658;28;20196;-94
2022/09/06 04:13:00;;;;;;;1.83;1.50;;;17.60;99.90;;;;;;5075991;28;20192;-94
2022/09/06 04:18:48;;;;;;;5.50;1.40;;;17.60;99.90;;;;;;5087019;28;20203;-93
2022/09/06 04:21:34;;;;;;;3.10;1.37;;;17.50;99.90;;;;;;5087528;28;20233;-93
2022/09/06 04:24:07;;;;;;;4.50;1.80;;;17.40;99.90;;;;;;5067902;28;20332;-94
2022/09/06 04:26:40;;;;;;;3.13;1.10;;;17.40;99.90;;;;;;5068902;28;20243;-93
2022/09/06 04:29:20;;;;;;;3.60;1.30;;;17.30;99.90;;;;;;5061818;28;20214;-94
2022/09/06 04:31:51;;;;;;;3.23;1.37;;;17.20;99.90;;;;;;5060322;28;20671;-94
2022/09/06 04:34:23;;;;;;;2.67;1.33;;;17.20;99.90;;;;;;5060799;28;20204;-94
2022/09/06 04:36:55;;;;;;;2.87;1.07;;;17.10;99.90;;;;;;5062326;28;20196;-94
2022/09/06 04:39:27;;;;;;;6.50;1.70;;;17.00;99.90;;;;;;5059720;28;20207;-94
2022/09/06 04:41:58;;;;;;;3.23;1.50;;;17.00;99.90;;;;;;5058331;28;20263;-94
2022/09/06 04:44:31;;;;;;;2.60;1.30;;;16.90;99.90;;;;;;5061775;28;20218;-94
2022/09/06 04:47:18;;;;;;;6.77;1.50;;;16.90;99.90;;;;;;5056361;28;20231;-94
2022/09/06 04:49:49;;;;;;;4.83;1.60;;;16.80;99.90;;;;;;5057709;28;20266;-92
2022/09/06 04:52:22;;;;;;;2.73;1.40;;;16.70;99.90;;;;;;5057214;28;20228;-94
2022/09/06 04:54:58;;;;;;;2.33;1.23;;;16.70;99.90;;;;;;5076744;28;20265;-93
2022/09/06 04:57:30;;;;;;;2.60;1.33;;;16.60;99.90;;;;;;5077734;28;20705;-93
2022/09/06 05:00:01;;;;;;;1.80;1.27;;;16.60;99.90;;;;;;5077384;28;20733;-93
2022/09/06 05:02:32;;;;;;;3.20;1.23;;;16.50;99.90;;;;;;5077368;28;20204;-93
2022/09/06 05:05:04;;;;;;;3.03;1.37;;;16.50;99.90;;;;;;5077197;28;20206;-93
2022/09/06 05:07:37;;;;;;;5.13;2.20;;;16.50;99.90;;;;;;5077414;28;20299;-94
2022/09/06 05:10:09;;;;;;;5.70;2.83;;;16.50;99.90;;;;;;5076940;28;20207;-94
2022/09/06 05:12:43;;;;;;;2.77;1.40;;;16.50;99.90;;;;;;5076869;28;20628;-92
2022/09/06 05:15:14;;;;;;;3.40;1.67;;;16.40;99.90;;;;;;5076945;28;21038;-92
2022/09/06 05:17:47;;;;;;;4.03;1.67;;;16.30;99.90;;;;;;5076700;28;20212;-92
2022/09/06 05:20:19;;;;;;;8.67;2.17;;;16.30;99.90;;;;;;5076690;28;20305;-93
2022/09/06 05:22:56;;;;;;;4.03;1.50;;;16.30;99.90;;;;;;5076430;28;20242;-93
2022/09/06 05:25:27;;;;;;;5.17;1.80;;;16.20;99.90;;;;;;5077103;28;20207;-91
2022/09/06 05:27:58;;;;;;;3.17;1.30;;;16.10;99.90;;;;;;5077991;28;20764;-92
2022/09/06 05:30:31;;;;;;;4.50;1.30;;;16.20;99.90;;;;;;5076927;28;20253;-92
2022/09/06 05:33:03;;;;;;;3.17;1.33;;;16.20;99.90;;;;;;5080816;28;20241;-91
2022/09/06 05:35:34;;;;;;;4.03;1.30;;;16.20;99.90;;;;;;5076878;28;20211;-92
2022/09/06 05:38:07;;;;;;;2.47;1.40;;;16.20;99.90;;;;;;5076874;28;20284;-92
2022/09/06 05:40:38;;;;;;;1.73;1.17;;;16.20;99.90;;;;;;5076854;28;20203;-92
2022/09/06 05:43:09;;;;;;;4.90;1.40;;;16.20;99.90;;;;;;5077468;28;20234;-92
2022/09/06 05:45:41;;;;;;;5.03;1.20;;;16.20;99.90;;;;;;5081148;28;20204;-91
2022/09/06 05:48:14;;;;;;;3.27;1.30;;;16.20;99.90;;;;;;5080300;28;20323;-92
2022/09/06 05:50:46;;;;;;;2.83;1.00;;;16.20;99.90;;;;;;5080780;28;20710;-92
2022/09/06 05:53:20;;;;;;;2.20;1.00;;;16.10;99.90;;;;;;5083180;28;20211;-92
2022/09/06 05:55:50;;;;;;;1.70;1.20;;;16.10;99.90;;;;;;5080700;28;20211;-91
2022/09/06 05:58:22;;;;;;;2.67;1.40;;;16.10;99.90;;;;;;5081176;28;20211;-92
2022/09/06 06:01:04;;;;;;;2.03;1.17;;;16.00;99.90;;;;;;5080799;28;20208;-92
2022/09/06 06:03:36;;;;;;;1.20;1.00;;;16.00;99.90;;;;;;5079956;28;20215;-92
2022/09/06 06:06:08;;;;;;;4.17;1.50;;;15.90;99.90;;;;;;5081298;28;20212;-92
2022/09/06 06:08:42;;;;;;;3.27;1.10;;;15.90;99.90;;;;;;5080073;28;20235;-92
2022/09/06 06:11:14;;;;;;;4.13;1.37;;;15.90;99.90;;;;;;5086005;28;20203;-92
2022/09/06 06:13:48;;;;;;;1.73;1.40;;;15.90;99.90;;;;;;5095076;28;20183;-93
2022/09/06 06:16:23;;;;;;;4.37;1.27;;;15.80;99.90;;;;;;5098542;28;20210;-92
2022/09/06 06:24:16;;;;;;;3.07;1.30;;;15.60;99.90;;;;;;5116765;28;20271;-93
2022/09/06 06:26:47;;;;;;;3.03;1.47;;;15.60;99.90;;;;;;5119480;28;20214;-93
2022/09/06 06:29:19;;;;;;;7.57;1.97;;;15.50;99.90;;;;;;5115857;28;20242;-93
2022/09/06 06:31:51;;;;;;;10.90;3.80;;;15.50;99.90;;;;;;5115976;28;20201;-94
2022/09/06 06:34:24;;;;;;;4.60;1.93;;;15.40;99.90;;;;;;5106503;28;20207;-93
2022/09/06 06:36:55;;;;;;;4.33;1.77;;;15.30;99.90;;;;;;5106263;28;20206;-93
2022/09/06 06:39:28;;;;;;;3.73;1.43;;;15.20;99.90;;;;;;5112299;28;20190;-92
2022/09/06 06:42:00;;;;;;;2.27;1.60;;;15.10;99.90;;;;;;5097130;28;20221;-92
2022/09/06 06:44:31;;;;;;;3.63;1.80;;;15.10;99.90;;;;;;5113668;28;20673;-92
2022/09/06 06:47:02;;;;;;;5.53;1.50;;;15.10;99.90;;;;;;5103889;28;20227;-93
2022/09/06 06:49:34;;;;;;;4.70;1.93;;;15.10;99.90;;;;;;5102774;28;20234;-92
2022/09/06 06:52:06;;;;;;;5.13;1.63;;;15.10;99.90;;;;;;5101951;28;20211;-92
2022/09/06 06:54:40;;;;;;;4.07;1.50;;;15.10;99.90;;;;;;5066157;28;20218;-92
2022/09/06 06:57:12;;;;;;;3.17;1.60;;;15.00;99.90;;;;;;5080938;28;20203;-92
2022/09/06 06:59:43;;;;;;;7.63;1.50;;;15.00;99.90;;;;;;5063941;28;20227;-92
2022/09/06 07:02:16;;;;;;;2.80;1.67;;;15.00;99.90;;;;;;5082511;28;20218;-92
2022/09/06 07:04:47;;;;;;;2.90;1.60;;;15.00;99.90;;;;;;5080758;28;20652;-92
2022/09/06 07:07:19;;;;;;;2.57;1.30;;;14.90;99.90;;;;;;5080747;28;20678;-92
2022/09/06 07:10:12;;;;;;;3.33;1.53;;;14.90;99.90;;;;;;5079802;28;20204;-93
2022/09/06 07:13:08;;;;;;;3.43;1.70;;;14.80;99.90;;;;;;5082509;28;20235;-92
2022/09/06 07:15:40;;;;;;;3.70;1.53;;;14.80;99.90;;;;;;5087228;28;20226;-93
2022/09/06 07:18:12;;;;;;;4.93;1.73;;;14.70;99.90;;;;;;5079749;28;20230;-93
2022/09/06 07:20:44;;;;;;;3.07;1.47;;;14.70;99.90;;;;;;5080125;28;20211;-93
2022/09/06 07:23:36;;;;;;;4.73;1.40;;;14.70;99.90;;;;;;5086863;28;20246;-92
2022/09/06 07:26:31;;;;;;;3.83;1.60;;;14.60;99.90;;;;;;5100047;28;20207;-92
2022/09/06 07:29:04;;;;;;;4.40;1.53;;;14.60;99.90;;;;;;5102363;28;20226;-92
2022/09/06 07:32:05;;;;;;;3.53;1.40;;;14.60;99.90;;;;;;5101834;28;20207;-93
2022/09/06 07:34:38;;;;;;;6.73;1.80;;;14.50;99.90;;;;;;5099877;28;20208;-93
2022/09/06 07:37:09;;;;;;;4.07;1.70;;;14.50;99.90;;;;;;5100553;28;20222;-93
2022/09/06 07:39:40;;;;;;;3.53;1.57;;;14.40;99.90;;;;;;5100284;28;20275;-93
2022/09/06 07:42:15;;;;;;;4.83;1.53;;;14.40;99.90;;;;;;5099053;28;20583;-91
2022/09/06 07:44:47;;;;;;;5.47;1.40;;;14.40;99.90;;;;;;5099826;28;20214;-93
2022/09/06 07:47:18;;;;;;;2.90;1.57;;;14.30;99.90;;;;;;5098533;28;20230;-91
2022/09/06 07:50:17;;;;;;;4.30;1.60;;;14.30;99.90;;;;;;5099661;28;20230;-91
2022/09/06 07:53:09;;;;;;;2.53;1.50;;;14.20;99.90;;;;;;5102930;28;20249;-91
2022/09/06 07:55:46;;;;;;;3.97;1.60;;;14.20;99.90;;;;;;5098312;28;20206;-91
2022/09/06 07:58:20;;;;;;;4.43;1.50;;;14.20;99.90;;;;;;5102004;28;20210;-91
2022/09/06 08:00:51;;;;;;;4.77;1.60;;;14.10;99.90;;;;;;5100067;28;20203;-91
2022/09/06 08:03:23;;;;;;;4.27;1.90;;;14.10;99.90;;;;;;5098605;28;20215;-91
2022/09/06 08:05:54;;;;;;;3.73;1.80;;;14.10;99.90;;;;;;5099016;28;20732;-91
2022/09/06 08:08:41;;;;;;;3.67;1.80;;;14.10;99.90;;;;;;5095219;28;20289;-93
2022/09/06 08:11:31;;;;;;;3.40;1.50;;;14.00;99.90;;;;;;5079184;28;20235;-92
2022/09/06 08:14:06;;;;;;;2.90;1.97;;;14.00;99.90;;;;;;5091127;28;20219;-92
2022/09/06 08:16:39;;;;;;;4.07;1.70;;;14.00;99.90;;;;;;5097290;28;20281;-91
2022/09/06 08:19:11;;;;;;;3.33;1.60;;;13.90;99.90;;;;;;5114634;27;20211;-91
2022/09/06 08:21:43;;;;;;;2.73;1.50;;;13.90;99.90;;;;;;5113236;28;20239;-91
2022/09/06 08:24:15;;;;;;;4.57;1.80;;;13.80;99.90;;;;;;5095344;28;20256;-92
2022/09/06 08:26:46;;;;;;;3.20;1.90;;;13.80;99.90;;;;;;5112463;28;20217;-92
2022/09/06 08:29:20;;;;;;;3.87;1.77;;;13.70;99.90;;;;;;5112727;28;20288;-92
2022/09/06 08:31:51;;;;;;;4.63;1.80;;;13.60;99.90;;;;;;5110197;28;20211;-92
2022/09/06 08:34:23;;;;;;;3.67;1.77;;;13.60;99.90;;;;;;5109202;28;20330;-92
2022/09/06 08:36:54;;;;;;;3.40;1.63;;;13.60;99.90;;;;;;5097529;28;20199;-92
2022/09/06 08:39:27;;;;;;;3.67;1.83;;;13.60;99.90;;;;;;5080733;28;20212;-92
2022/09/06 08:42:02;;;;;;;3.73;1.77;;;13.60;99.90;;;;;;5082699;28;20200;-92
2022/09/06 08:44:41;;;;;;;4.27;2.00;;;13.50;99.90;;;;;;5078551;28;20215;-92
2022/09/06 08:47:28;;;;;;;3.23;1.57;;;13.50;99.90;;;;;;5082670;28;20211;-92
2022/09/06 08:50:04;;;;;;;3.27;1.77;;;13.50;99.90;;;;;;5078026;28;20227;-92
2022/09/06 08:52:59;;;;;;;3.97;1.63;;;13.50;99.90;;;;;;5079932;28;20657;-92
2022/09/06 08:55:54;;;;;;;2.33;1.47;;;13.50;99.90;;;;;;5087674;28;20278;-92
2022/09/06 08:58:40;;;;;;;3.87;1.50;;;13.40;99.90;;;;;;5102785;28;20202;-92
2022/09/06 09:01:18;;;;;;;5.93;1.80;;;13.40;99.90;;;;;;5099131;28;20659;-92
2022/09/06 09:03:50;;;;;;;3.80;1.90;;;13.40;99.90;;;;;;5097956;28;20213;-92
2022/09/06 09:06:21;;;;;;;6.27;2.07;;;13.40;99.90;;;;;;5100366;28;20211;-92
2022/09/06 09:09:02;;;;;;;3.70;1.67;;;13.40;99.90;;;;;;5100104;28;20280;-92
2022/09/06 09:11:35;;;;;;;4.37;1.83;;;13.40;99.90;;;;;;5099641;28;20666;-92
2022/09/06 09:14:09;;;;;;;3.10;1.77;;;13.40;99.90;;;;;;5101427;28;20198;-90
2022/09/06 09:16:43;;;;;;;3.40;1.60;;;13.30;99.90;;;;;;5098561;28;20199;-91
2022/09/06 09:19:15;;;;;;;4.63;1.80;;;13.20;99.90;;;;;;5101723;28;20226;-91
2022/09/06 09:21:47;;;;;;;3.27;1.70;;;13.20;99.90;;;;;;5103552;28;20222;-92
2022/09/06 09:24:19;;;;;;;4.40;1.77;;;13.20;99.90;;;;;;5103054;28;20206;-92
2022/09/06 09:26:54;;;;;;;3.90;1.93;;;13.20;99.90;;;;;;5102160;28;20211;-91
2022/09/06 09:29:25;;;;;;;4.00;1.70;;;13.30;99.90;;;;;;5102918;28;20234;-92
2022/09/06 09:32:05;;;;;;;3.63;1.70;;;13.20;99.90;;;;;;5101003;28;20199;-91
2022/09/06 09:34:39;;;;;;;2.67;1.67;;;13.20;99.90;;;;;;5102483;28;20207;-91
2022/09/06 09:37:18;;;;;;;3.47;1.80;;;13.20;99.90;;;;;;5105192;28;20279;-91
2022/09/06 09:40:16;;;;;;;2.73;1.53;;;13.20;99.90;;;;;;5117710;28;20202;-91
2022/09/06 09:42:47;;;;;;;3.30;2.00;;;13.10;99.90;;;;;;5118484;28;20260;-92
2022/09/06 09:45:27;;;;;;;4.30;1.90;;;13.10;99.90;;;;;;5116973;28;20207;-91
2022/09/06 09:48:19;;;;;;;5.57;1.97;;;13.10;99.90;;;;;;5116907;28;20225;-92
2022/09/06 09:50:51;;;;;;;2.13;1.60;;;13.00;99.90;;;;;;5085949;28;20250;-91
2022/09/06 09:53:23;;;;;;;3.93;1.60;;;13.00;99.90;;;;;;5080894;28;20691;-91
2022/09/06 09:56:00;;;;;;;2.50;1.77;;;13.00;99.90;;;;;;5081023;28;20269;-91
2022/09/06 09:58:35;;;;;;;3.57;1.70;;;13.00;99.90;;;;;;5080850;28;20562;-91
2022/09/06 10:01:19;;;;;;;2.90;1.60;;;12.90;99.90;;;;;;5080748;28;20211;-92
2022/09/06 10:04:01;;;;;;;4.77;1.63;;;12.90;99.90;;;;;;5080070;28;20215;-91
2022/09/06 10:06:52;;;;;;;4.33;1.77;;;12.80;99.90;;;;;;5079800;28;20263;-92
2022/09/06 10:09:42;;;;;;;3.27;1.83;;;12.80;99.90;;;;;;5079790;28;20231;-92
2022/09/06 10:12:19;;;;;;;4.00;1.57;;;12.80;99.90;;;;;;5079218;28;20208;-91
2022/09/06 10:14:51;;;;;;;4.07;1.90;;;12.80;99.90;;;;;;5079916;28;20290;-91
2022/09/06 10:17:30;;;;;;;5.27;1.60;;;12.80;99.90;;;;;;5080618;28;20203;-91
2022/09/06 10:20:09;;;;;;;3.60;1.60;;;12.80;99.90;;;;;;5080982;28;20231;-91
2022/09/06 10:22:52;;;;;;;2.10;1.57;;;12.70;99.90;;;;;;5078923;28;20219;-91
2022/09/06 10:25:40;;;;;;;1.47;1.37;;;12.70;99.90;;;;;;5080038;28;20289;-91
2022/09/06 10:28:32;;;;;;;3.00;1.70;;;12.70;99.90;;;;;;5077586;28;20640;-94
2022/09/06 10:31:36;;;;;;;5.17;1.60;;;12.70;99.90;;;;;;5079957;28;20239;-91
2022/09/06 10:34:33;;;;;;;3.50;1.63;;;12.70;99.90;;;;;;5070848;28;20200;-91
2022/09/06 10:37:17;;;;;;;3.63;2.00;;;12.70;99.90;;;;;;5079537;28;20203;-92
2022/09/06 10:39:54;;;;;;;3.20;1.50;;;12.60;99.90;;;;;;5079343;28;20615;-92
2022/09/06 10:42:39;;;;;;;3.33;1.83;;;12.60;99.90;;;;;;5079124;28;20253;-92
2022/09/06 10:45:45;;;;;;;1.97;1.50;;;12.60;99.90;;;;;;5080097;28;20207;-92
2022/09/06 10:48:22;;;;;;;3.73;1.67;;;12.50;99.90;;;;;;5076096;28;20249;-92
2022/09/06 10:50:57;;;;;;;4.03;1.50;;;12.50;99.90;;;;;;5081127;28;20231;-91
2022/09/06 10:53:37;;;;;;;2.17;1.80;;;12.50;99.90;;;;;;5078660;28;20656;-92
2022/09/06 10:56:11;;;;;;;3.30;1.97;;;12.50;99.90;;;;;;5079232;28;20211;-91
2022/09/06 10:58:55;;;;;;;3.37;1.80;;;12.50;99.90;;;;;;5079172;28;20570;-91
2022/09/06 11:01:54;;;;;;;3.70;1.97;;;12.40;99.90;;;;;;5078490;28;20225;-92
2022/09/06 11:04:32;;;;;;;4.83;2.07;;;12.40;99.90;;;;;;5079336;28;20365;-92
2022/09/06 11:07:30;;;;;;;2.50;1.90;;;12.30;99.90;;;;;;5078304;28;20279;-91
2022/09/06 11:10:07;;;;;;;6.20;1.97;;;12.20;99.90;;;;;;5079432;28;20285;-92
2022/09/06 11:12:45;;;;;;;4.47;2.00;;;12.20;99.90;;;;;;5081100;28;20211;-92
2022/09/06 11:15:19;;;;;;;2.57;1.63;;;12.20;99.90;;;;;;5081439;28;20208;-91
2022/09/06 11:17:55;;;;;;;5.07;2.60;;;12.20;99.90;;;;;;5081147;28;20248;-91
2022/09/06 11:20:30;;;;;;;3.63;1.97;;;12.20;99.90;;;;;;5082212;28;20207;-91
2022/09/06 11:23:36;;;;;;;3.60;1.97;;;12.10;99.90;;;;;;5081524;28;20576;-91
2022/09/06 11:26:44;;;;;;;5.03;2.33;;;12.10;99.90;;;;;;5075361;28;20211;-90
2022/09/06 11:29:27;;;;;;;3.93;2.07;;;12.10;99.90;;;;;;5076261;28;20237;-90
2022/09/06 11:32:00;;;;;;;3.30;2.00;;;12.00;99.90;;;;;;5077935;28;20235;-91
2022/09/06 11:34:55;;;;;;;4.67;1.97;;;12.00;99.90;;;;;;5062793;28;20211;-91
2022/09/06 11:37:29;;;;;;;3.33;1.80;;;12.00;99.90;;;;;;5078242;28;20215;-90
2022/09/06 11:40:15;;;;;;;4.90;2.23;;;12.00;99.90;;;;;;5077777;28;20199;-91
2022/09/06 11:43:17;;;;;;;3.63;2.00;;;12.00;99.90;;;;;;5077252;28;20207;-91
2022/09/06 11:45:51;;;;;;;4.80;2.43;;;12.00;99.90;;;;;;5078262;28;20204;-91
2022/09/06 11:48:35;;;;;;;3.97;2.03;;;12.00;99.90;;;;;;5082023;28;20215;-91
2022/09/06 11:51:11;;;;;;;6.17;2.10;;;11.90;99.90;;;;;;5099234;28;20230;-91
2022/09/06 11:54:08;;;;;;;5.00;2.13;;;11.90;99.90;;;;;;5098987;28;20203;-91
2022/09/06 11:56:48;;;;;;;3.60;2.20;;;11.90;99.90;;;;;;5113882;28;20222;-91
2022/09/06 11:59:31;;;;;;;4.70;2.37;;;11.90;99.90;;;;;;5115874;28;20206;-91
2022/09/06 12:02:03;;;;;;;3.83;2.10;;;11.90;99.90;;;;;;5107489;28;20225;-91
2022/09/06 12:05:11;;;;;;;3.73;2.07;;;11.90;99.90;;;;;;5098511;28;20207;-91
2022/09/06 12:08:25;;;;;;;3.73;2.00;;;11.90;99.90;;;;;;5097143;28;20643;-91
2022/09/06 12:11:05;;;;;;;3.60;1.90;;;11.90;99.90;;;;;;5098333;28;20237;-91
2022/09/06 12:13:59;;;;;;;4.40;2.60;;;11.90;99.90;;;;;;5097147;28;20203;-91
2022/09/06 12:17:03;;;;;;;3.23;2.03;;;11.90;99.90;;;;;;5097850;28;20202;-91
2022/09/06 12:19:46;;;;;;;3.13;1.83;;;11.80;99.90;;;;;;5097705;28;20203;-91
2022/09/06 12:22:53;;;;;;;4.73;2.10;;;11.80;99.90;;;;;;5096469;28;20671;-91
2022/09/06 12:25:54;;;;;;;6.30;2.40;;;11.80;99.90;;;;;;5097490;28;20214;-91
2022/09/06 12:28:45;;;;;;;4.07;1.97;;;11.70;99.90;;;;;;5099980;28;20252;-91
2022/09/06 12:31:31;;;;;;;5.30;2.00;;;11.70;99.90;;;;;;5097638;28;20255;-90
2022/09/06 12:34:15;;;;;;;4.43;2.30;;;11.70;99.90;;;;;;5101409;28;20244;-91
2022/09/06 12:37:03;;;;;;;4.17;2.30;;;11.70;99.90;;;;;;5083628;28;20227;-91
2022/09/06 12:39:35;;;;;;;3.23;2.10;;;11.70;99.90;;;;;;5102384;28;20215;-91
2022/09/06 12:42:11;;;;;;;5.90;2.10;;;11.70;99.90;;;;;;5096562;28;20213;-90
2022/09/06 12:44:44;;;;;;;5.47;1.97;;;11.60;99.90;;;;;;5098368;28;20207;-91
2022/09/06 12:47:24;;;;;;;4.93;2.10;;;11.60;99.90;;;;;;5092422;28;20196;-90
2022/09/06 12:50:18;;;;;;;4.80;2.33;;;11.60;99.90;;;;;;5075734;28;20207;-89
2022/09/06 12:52:54;;;;;;;5.37;2.50;;;11.60;99.90;;;;;;5075960;28;20670;-91
2022/09/06 12:55:29;;;;;;;5.93;2.40;;;11.60;99.90;;;;;;5076651;28;20259;-91
2022/09/06 12:58:06;;;;;;;6.27;2.43;;;11.50;99.90;;;;;;5059415;28;20253;-91
2022/09/06 13:00:41;;;;;;;5.33;2.37;;;11.50;99.90;;;;;;5076234;28;20207;-91
2022/09/06 13:03:25;;;;;;;6.10;2.30;;;11.50;99.90;;;;;;5075598;28;20219;-90
2022/09/06 13:05:58;;;;;;;4.60;2.40;;;11.50;99.90;;;;;;5076864;28;20211;-91
2022/09/06 13:08:36;;;;;;;4.63;2.47;;;11.50;99.90;;;;;;5076425;28;20211;-91
2022/09/06 13:11:13;;;;;;;3.10;2.33;;;11.50;99.90;;;;;;5076931;28;20231;-91
2022/09/06 13:13:49;;;;;;;4.17;2.13;;;11.50;99.90;;;;;;5075805;28;20230;-91
2022/09/06 13:16:24;;;;;;;4.43;2.67;;;11.50;99.90;;;;;;5076338;28;20207;-90
2022/09/06 13:18:55;;;;;;;3.83;2.30;;;11.40;99.90;;;;;;5077316;28;20282;-90
2022/09/06 13:21:30;;;;;;;3.67;2.37;;;11.40;99.90;;;;;;5076234;28;20207;-92
2022/09/06 13:24:18;;;;;;;3.97;2.43;;;11.40;99.90;;;;;;5077173;28;20235;-91
2022/09/06 13:26:50;;;;;;;6.37;2.67;;;11.40;99.90;;;;;;5077090;28;20998;-90
2022/09/06 13:29:26;;;;;;;7.13;3.40;;;11.30;99.90;;;;;;5076651;28;20207;-91
2022/09/06 13:32:00;;;;;;;4.60;2.67;;;11.30;99.90;;;;;;5077825;28;20235;-91
2022/09/06 13:34:32;;;;;;;4.33;2.70;;;11.30;99.90;;;;;;5076715;28;20613;-91
2022/09/06 13:37:07;;;;;;;3.73;2.60;;;11.40;99.90;;;;;;5079033;28;20207;-91
2022/09/06 13:39:42;;;;;;;4.77;2.63;;;11.40;99.90;;;;;;5059846;28;20352;-91
2022/09/06 13:42:27;;;;;;;6.70;2.60;;;11.30;99.90;;;;;;5079483;28;20204;-91
2022/09/06 13:44:59;;;;;;;5.73;2.83;;;11.40;99.90;;;;;;5076721;28;20277;-91
2022/09/06 13:47:33;;;;;;;8.30;2.80;;;11.40;99.90;;;;;;5076051;28;20213;-91
2022/09/06 13:50:04;;;;;;;3.50;2.37;;;11.40;99.90;;;;;;5076602;28;20216;-90
2022/09/06 13:52:37;;;;;;;6.50;2.70;;;11.40;99.90;;;;;;5075708;28;20227;-91
2022/09/06 13:55:17;;;;;;;4.60;2.70;;;11.40;99.90;;;;;;5077015;28;20203;-91
2022/09/06 13:57:49;;;;;;;3.70;2.43;;;11.40;99.90;;;;;;5076348;28;20628;-91
2022/09/06 14:00:22;;;;;;;3.13;2.30;;;11.40;99.90;;;;;;5076279;28;20204;-91
2022/09/06 14:02:55;;;;;;;5.93;2.67;;;11.40;99.90;;;;;;5076798;28;20668;-91
2022/09/06 14:05:26;;;;;;;4.93;2.73;;;11.40;99.90;;;;;;5079895;28;20267;-91
2022/09/06 14:07:58;;;;;;;4.30;2.97;;;11.40;99.90;;;;;;5082463;28;20212;-91
2022/09/06 14:10:32;;;;;;;5.23;3.00;;;11.50;99.90;;;;;;5101124;28;20203;-91
2022/09/06 14:13:04;;;;;;;4.13;2.70;;;11.50;99.90;;;;;;5099254;28;20709;-91
2022/09/06 14:15:37;;;;;;;4.63;2.97;;;11.50;99.90;;;;;;5100890;28;20207;-91
2022/09/06 14:18:08;;;;;;;4.53;2.93;;;11.60;99.90;;;;;;5103549;28;20203;-91
2022/09/06 14:20:49;;;;;;;5.23;2.87;;;11.60;99.90;;;;;;5080171;28;20226;-90
2022/09/06 14:29:10;;;;;;;4.20;2.80;;;11.80;99.90;;;;;;5093033;28;20203;-91
2022/09/06 14:31:47;;;;;;;4.60;2.73;;;11.90;99.90;;;;;;5091028;28;20235;-90
2022/09/06 14:34:20;;;;;;;3.00;2.50;;;11.90;99.90;;;;;;5092939;28;20237;-92
2022/09/06 14:36:55;;;;;;;4.27;2.90;;;11.90;99.90;;;;;;5092139;28;20207;-91
2022/09/06 14:39:27;;;;;;;4.10;2.80;;;11.90;99.90;;;;;;5092806;28;20218;-90